»·PEaware :: UAL5289 KPRC-KLAX

UAL5289 :: KPRC-KLAX

FLIGHT INFORMATION

Flight Status: Arrived
Operator:
United Airlines
More flights by this operator :: More flights under this callsign
Pilot: Utku A. (15598)
Aircraft: BOEING 737-800
(B738)
More flights by this aircraft type
Origin: KPRC Love
United States
Destination: KLAX Los Angeles Intl
United States
More flights between these airports :: More routes between these airports
Route: +DRK J231 HIPPI GABBL HLYWD1
File this flight plan on PilotEdge
Remarks:
Altitude:
(Current/Filed)
34,000ft
Speed:
(Current/Filed)
429kts
Departed: 02-Aug-18 07:21 PM
Arrived: 02-Aug-18 08:16 PM
Distance/Time
Traveled:
300nm/0:55
Distance/Time
To Go:
Arrived

Flight Plot

Page will automatically refresh every two minutes.

Flight plan parsing failed; only flown route is shown


Map Options




Map Legend


Flown Route
Filed Route
Departure Airport
Arrival Airport
Navaid (VOR, NDB)
Fix

Horizontal Profiles

Position Reports

Time Latitude Longitude Heading Altitude Ground
Speed
02-Aug-18 19:02 34.649506 -112.426745 339 5017ft 0kts
02-Aug-18 19:03 34.649506 -112.426745 339 5017ft 0kts
02-Aug-18 19:04 34.649506 -112.426745 339 5017ft 0kts
02-Aug-18 19:05 34.649506 -112.426745 339 5017ft 0kts
02-Aug-18 19:06 34.649506 -112.426745 339 5017ft 0kts
02-Aug-18 19:07 34.649506 -112.426745 339 5017ft 0kts
02-Aug-18 19:08 34.649506 -112.426745 339 5017ft 0kts
02-Aug-18 19:09 34.649506 -112.426745 339 5017ft 0kts
02-Aug-18 19:10 34.649506 -112.426745 339 5017ft 0kts
02-Aug-18 19:11 34.649506 -112.426745 339 5017ft 0kts
02-Aug-18 19:12 34.649506 -112.426745 339 5017ft 0kts
02-Aug-18 19:13 34.649506 -112.426745 339 5017ft 0kts
02-Aug-18 19:14 34.649506 -112.426745 339 5017ft 0kts
02-Aug-18 19:15 34.649549 -112.426749 6 5017ft 0kts
02-Aug-18 19:16 34.650620 -112.425036 41 5017ft 11kts
02-Aug-18 19:17 34.653430 -112.422048 41 5017ft 14kts
02-Aug-18 19:18 34.656757 -112.418509 41 5017ft 17kts
02-Aug-18 19:19 34.660497 -112.414534 41 5017ft 18kts
02-Aug-18 19:20 34.662688 -112.412478 66 5017ft 4kts
02-Aug-18 19:21 34.662101 -112.411459 200 5017ft 2kts
02-Aug-18 19:22 34.653546 -112.420499 221 5017ft 133kts
02-Aug-18 19:23 34.614865 -112.452653 209 6279ft 191kts
02-Aug-18 19:24 34.568316 -112.484740 211 8458ft 198kts
02-Aug-18 19:25 34.516287 -112.521199 210 9672ft 261kts
02-Aug-18 19:26 34.458790 -112.587905 256 11588ft 319kts
02-Aug-18 19:27 34.464422 -112.696388 276 14457ft 332kts
02-Aug-18 19:28 34.476479 -112.808841 276 17026ft 345kts
02-Aug-18 19:29 34.488908 -112.925578 275 19320ft 356kts
02-Aug-18 19:30 34.501688 -113.046820 274 21260ft 370kts
02-Aug-18 19:31 34.514693 -113.171662 274 23132ft 380kts
02-Aug-18 19:32 34.527919 -113.299902 274 24817ft 389kts
02-Aug-18 19:33 34.541356 -113.431531 274 26335ft 398kts
02-Aug-18 19:34 34.554932 -113.565921 274 27702ft 406kts
02-Aug-18 19:35 34.556763 -113.701066 260 28458ft 408kts
02-Aug-18 19:36 34.541212 -113.836330 259 29290ft 402kts
02-Aug-18 19:37 34.526017 -113.970426 260 29829ft 404kts
02-Aug-18 19:38 34.507685 -114.104681 253 29840ft 429kts
02-Aug-18 19:39 34.476961 -114.244634 253 29830ft 429kts
02-Aug-18 19:40 34.446944 -114.384002 253 29830ft 429kts
02-Aug-18 19:41 34.416852 -114.523813 253 29832ft 429kts
02-Aug-18 19:42 34.386860 -114.662669 253 29847ft 429kts
02-Aug-18 19:43 34.358043 -114.795307 253 29881ft 425kts
02-Aug-18 19:44 34.327939 -114.933198 253 29882ft 424kts
02-Aug-18 19:45 34.298363 -115.067789 253 29903ft 425kts
02-Aug-18 19:46 34.267825 -115.206002 254 29944ft 426kts
02-Aug-18 19:47 34.238136 -115.344391 254 29963ft 426kts
02-Aug-18 19:48 34.208539 -115.482745 254 29965ft 427kts
02-Aug-18 19:49 34.178615 -115.621864 254 29960ft 430kts
02-Aug-18 19:50 34.157606 -115.744286 261 29969ft 430kts
02-Aug-18 19:51 34.144013 -115.887649 262 29962ft 430kts
02-Aug-18 19:52 34.130213 -116.030688 262 29963ft 430kts
02-Aug-18 19:53 34.116332 -116.172833 262 29965ft 430kts
02-Aug-18 19:54 34.102562 -116.311639 261 29887ft 430kts
02-Aug-18 19:55 34.087387 -116.454565 261 29813ft 430kts
02-Aug-18 19:56 34.072034 -116.597261 262 29363ft 419kts
02-Aug-18 19:57 34.060910 -116.716215 262 28684ft 428kts
02-Aug-18 19:58 34.048039 -116.854081 262 27918ft 430kts
02-Aug-18 19:59 34.031422 -116.995430 261 25960ft 404kts
02-Aug-18 20:00 34.014840 -117.130145 262 23100ft 403kts
02-Aug-18 20:01 33.999408 -117.259382 262 19720ft 386kts
02-Aug-18 20:02 33.984494 -117.384910 262 16120ft 374kts
02-Aug-18 20:03 33.965593 -117.504449 255 14244ft 357kts
02-Aug-18 20:04 33.949149 -117.615058 261 12001ft 329kts
02-Aug-18 20:05 33.942321 -117.718602 284 11492ft 302kts
02-Aug-18 20:06 33.963936 -117.807937 286 10613ft 265kts
02-Aug-18 20:07 33.983561 -117.886934 285 9132ft 229kts
02-Aug-18 20:08 33.980581 -117.959903 262 7255ft 220kts
02-Aug-18 20:09 33.972551 -118.027446 260 6175ft 192kts
02-Aug-18 20:10 33.966409 -118.090968 262 5225ft 191kts
02-Aug-18 20:11 33.960344 -118.151676 261 4007ft 172kts
02-Aug-18 20:12 33.954706 -118.206134 262 3182ft 160kts
02-Aug-18 20:13 33.949617 -118.258565 262 2230ft 155kts
02-Aug-18 20:14 33.944432 -118.309722 263 1359ft 152kts
02-Aug-18 20:15 33.939563 -118.359237 263 528ft 149kts
02-Aug-18 20:16 33.935440 -118.401769 263 110ft 45kts
02-Aug-18 20:17 33.935900 -118.406239 287 110ft 10kts
02-Aug-18 20:18 33.936771 -118.408986 350 110ft 9kts
02-Aug-18 20:19 33.938059 -118.407420 84 110ft 9kts
02-Aug-18 20:20 33.938471 -118.403204 83 110ft 13kts
02-Aug-18 20:21 33.939607 -118.400558 353 110ft 8kts
02-Aug-18 20:22 33.941881 -118.401174 278 110ft 5kts
02-Aug-18 20:23 33.941910 -118.401631 273 110ft 0kts
02-Aug-18 20:24 33.941910 -118.401631 273 110ft 0kts
02-Aug-18 20:25 33.941910 -118.401631 273 110ft 0kts
02-Aug-18 20:26 33.941910 -118.401631 273 110ft 0kts

Navigation Log

Ident Type
Flight plan parsing failed, navigation log unavailable